createdAt,value
2017-06-19T19:15:05.059Z,29.31
2017-06-19T19:17:32.541Z,29.30
2017-06-19T19:20:01.161Z,29.65
2017-06-19T19:34:01.536Z,25.29
2017-06-19T19:36:29.477Z,25.09
2017-06-19T19:38:56.917Z,24.59
2017-06-19T19:41:24.666Z,24.67
2017-06-19T19:43:52.498Z,25.33
2017-06-19T19:46:20.263Z,25.40
2017-06-19T19:48:48.428Z,24.05
2017-06-19T19:51:16.075Z,23.45
2017-06-19T19:53:43.494Z,23.48
2017-06-19T19:56:10.955Z,24.06
2017-06-19T19:58:42.193Z,24.46
2017-06-19T20:01:10.070Z,24.01
2017-06-19T20:03:38.279Z,24.03
2017-06-19T20:06:05.712Z,24.20
2017-06-19T20:08:33.130Z,23.68
2017-06-19T20:11:00.561Z,24.32
2017-06-19T20:13:28.183Z,23.23
2017-06-19T20:15:56.171Z,23.09
2017-06-19T20:18:23.582Z,23.09
2017-06-19T20:20:51.043Z,23.58
2017-06-19T20:23:18.665Z,23.73
2017-06-19T20:25:46.071Z,24.11
2017-06-19T20:28:13.634Z,23.86
2017-06-19T20:30:41.496Z,23.93
2017-06-19T20:33:09.152Z,23.74
2017-06-19T20:35:37.174Z,23.79
2017-06-19T20:38:04.587Z,22.84
2017-06-19T20:40:32.377Z,22.83
2017-06-19T20:43:00.147Z,22.67
2017-06-19T20:45:27.610Z,22.79
2017-06-19T20:47:55.506Z,22.56
2017-06-19T20:50:24.350Z,22.59
2017-06-19T20:52:51.834Z,22.08
2017-06-19T20:55:21.770Z,22.15
2017-06-19T20:57:49.207Z,22.28
2017-06-19T21:00:16.626Z,22.46
2017-06-19T21:02:44.071Z,22.46
2017-06-19T21:05:11.504Z,22.50
2017-06-19T21:07:38.921Z,22.26
2017-06-19T21:10:06.681Z,22.35
2017-06-19T21:12:34.103Z,22.33
2017-06-19T21:15:01.530Z,22.29
2017-06-19T21:17:29.171Z,22.24
2017-06-19T21:19:56.589Z,21.78
2017-06-19T21:22:24.487Z,22.03
2017-06-19T21:24:51.930Z,21.81
